Time;durP1;ratioP1;P1;durP2;ratioP2;P2;SDS_P1;SDS_P2;PMS_P1;PMS_P2;Temp;Humidity;BMP_temperature;BMP_pressure;BME280_temperature;BME280_humidity;BME280_pressure;Samples;Min_cycle;Max_cycle;Signal;HPM_P1;HPM_P2
2022/09/30 00:00:46;;;;;;;;;;;;;;;;;;12609449;28;19914;-79
2022/09/30 00:06:48;;;;;;;;;;;;;;;;;;12643297;28;19930;-78
2022/09/30 00:12:49;;;;;;;;;;;;;;;;;;12608298;28;19908;-78
2022/09/30 00:18:51;;;;;;;;;;;;;;;;;;12625270;28;19930;-78
2022/09/30 00:24:53;;;;;;;;;;;;;;;;;;12642654;28;19919;-78
2022/09/30 00:30:54;;;;;;;;;;;;;;;;;;12643018;28;20285;-78
2022/09/30 00:36:56;;;;;;;;;;;;;;;;;;12623816;28;19908;-79
2022/09/30 00:42:58;;;;;;;;;;;;;;;;;;12642851;28;19908;-78
2022/09/30 00:48:59;;;;;;;;;;;;;;;;;;12630520;28;20280;-78
2022/09/30 00:55:01;;;;;;;;;;;;;;;;;;12573509;28;19912;-79
2022/09/30 01:01:02;;;;;;;;;;;;;;;;;;12571019;28;19909;-78
2022/09/30 01:07:04;;;;;;;;;;;;;;;;;;12571985;28;20322;-78
2022/09/30 01:13:06;;;;;;;;;;;;;;;;;;12572169;28;19909;-78
2022/09/30 01:19:07;;;;;;;;;;;;;;;;;;12590454;28;20253;-78
2022/09/30 01:25:10;;;;;;;;;;;;;;;;;;12555026;28;20280;-78
2022/09/30 01:31:11;;;;;;;;;;;;;;;;;;12589345;28;20290;-78
2022/09/30 01:37:13;;;;;;;;;;;;;;;;;;12570951;28;19932;-79
2022/09/30 01:43:14;;;;;;;;;;;;;;;;;;12588761;28;19909;-78
2022/09/30 01:49:16;;;;;;;;;;;;;;;;;;12585481;28;19966;-78
2022/09/30 01:55:17;;;;;;;;;;;;;;;;;;12638725;28;20321;-78
2022/09/30 02:01:19;;;;;;;;;;;;;;;;;;12638169;28;20466;-78
2022/09/30 02:07:21;;;;;;;;;;;;;;;;;;12637967;28;19920;-78
2022/09/30 02:13:22;;;;;;;;;;;;;;;;;;12602884;28;19987;-78
2022/09/30 02:19:24;;;;;;;;;;;;;;;;;;12620294;28;20348;-78
2022/09/30 02:25:26;;;;;;;;;;;;;;;;;;12618601;28;20322;-78
2022/09/30 02:31:27;;;;;;;;;;;;;;;;;;12601883;28;19971;-78
2022/09/30 02:37:29;;;;;;;;;;;;;;;;;;12619260;28;19908;-78
2022/09/30 02:43:30;;;;;;;;;;;;;;;;;;12620122;28;20224;-77
2022/09/30 02:49:32;;;;;;;;;;;;;;;;;;12619845;28;20277;-79
2022/09/30 02:55:34;;;;;;;;;;;;;;;;;;12636095;28;20004;-79
2022/09/30 03:01:40;;;;;;;;;;;;;;;;;;12617347;28;19908;-78
2022/09/30 03:07:42;;;;;;;;;;;;;;;;;;12617766;28;19915;-79
2022/09/30 03:13:43;;;;;;;;;;;;;;;;;;12635217;28;20302;-78
2022/09/30 03:19:45;;;;;;;;;;;;;;;;;;12600785;28;19912;-78
2022/09/30 03:25:46;;;;;;;;;;;;;;;;;;12624481;28;19912;-78
2022/09/30 03:31:48;;;;;;;;;;;;;;;;;;12644604;28;19920;-78
2022/09/30 03:37:50;;;;;;;;;;;;;;;;;;12644736;28;19914;-79
2022/09/30 03:43:51;;;;;;;;;;;;;;;;;;12625781;28;19908;-78
2022/09/30 03:49:53;;;;;;;;;;;;;;;;;;12625307;28;19922;-78
2022/09/30 03:55:55;;;;;;;;;;;;;;;;;;12625829;28;19916;-79
2022/09/30 04:01:56;;;;;;;;;;;;;;;;;;12643416;28;20368;-77
2022/09/30 04:07:58;;;;;;;;;;;;;;;;;;12643370;28;19964;-77
2022/09/30 04:14:00;;;;;;;;;;;;;;;;;;12642876;28;20105;-77
2022/09/30 04:20:01;;;;;;;;;;;;;;;;;;12624538;28;19912;-78
2022/09/30 04:26:04;;;;;;;;;;;;;;;;;;12642322;28;19970;-76
2022/09/30 04:32:05;;;;;;;;;;;;;;;;;;12623849;28;19999;-77
2022/09/30 04:38:07;;;;;;;;;;;;;;;;;;12642134;28;19907;-77
2022/09/30 04:44:09;;;;;;;;;;;;;;;;;;12623536;28;19915;-77
2022/09/30 04:50:10;;;;;;;;;;;;;;;;;;12606296;28;20015;-77
2022/09/30 04:56:12;;;;;;;;;;;;;;;;;;12624100;28;19919;-77
2022/09/30 05:02:14;;;;;;;;;;;;;;;;;;12622548;28;20270;-77
2022/09/30 05:08:17;;;;;;;;;;;;;;;;;;12640968;28;20070;-77
2022/09/30 05:14:19;;;;;;;;;;;;;;;;;;12622376;28;19908;-77
2022/09/30 05:20:20;;;;;;;;;;;;;;;;;;12621507;28;19995;-77
2022/09/30 05:26:22;;;;;;;;;;;;;;;;;;12638813;28;19931;-78
2022/09/30 05:32:24;;;;;;;;;;;;;;;;;;12639175;28;19938;-77
2022/09/30 05:38:25;;;;;;;;;;;;;;;;;;12620226;28;19908;-78
2022/09/30 05:44:27;;;;;;;;;;;;;;;;;;12636473;28;19908;-77
2022/09/30 05:50:28;;;;;;;;;;;;;;;;;;12606898;28;19916;-79
2022/09/30 05:56:30;;;;;;;;;;;;;;;;;;12567241;28;19919;-78
2022/09/30 06:02:37;;;;;;;;;;;;;;;;;;12598199;28;20351;-81
2022/09/30 06:08:39;;;;;;;;;;;;;;;;;;12589380;28;19923;-75
2022/09/30 06:14:40;;;;;;;;;;;;;;;;;;12577771;28;20407;-76
2022/09/30 06:20:42;;;;;;;;;;;;;;;;;;12572206;28;19924;-75
2022/09/30 06:26:43;;;;;;;;;;;;;;;;;;12587379;28;19994;-76
2022/09/30 06:32:45;;;;;;;;;;;;;;;;;;12555140;28;19927;-75
2022/09/30 06:38:50;;;;;;;;;;;;;;;;;;12574845;28;19920;-79
2022/09/30 06:44:51;;;;;;;;;;;;;;;;;;12596497;28;19907;-78
2022/09/30 06:50:54;;;;;;;;;;;;;;;;;;12577454;28;19916;-80
2022/09/30 06:56:59;;;;;;;;;;;;;;;;;;12583923;28;19988;-80
2022/09/30 07:03:00;;;;;;;;;;;;;;;;;;12604293;28;20282;-78
2022/09/30 07:09:02;;;;;;;;;;;;;;;;;;12572835;28;19927;-77
2022/09/30 07:15:03;;;;;;;;;;;;;;;;;;12595972;28;19908;-78
2022/09/30 07:21:05;;;;;;;;;;;;;;;;;;12583477;28;21391;-75
2022/09/30 07:27:06;;;;;;;;;;;;;;;;;;12619110;28;20276;-79
2022/09/30 07:33:08;;;;;;;;;;;;;;;;;;12610337;28;19934;-75
2022/09/30 07:39:10;;;;;;;;;;;;;;;;;;12625722;28;20268;-81
2022/09/30 07:45:14;;;;;;;;;;;;;;;;;;12604768;28;19931;-77
2022/09/30 07:51:16;;;;;;;;;;;;;;;;;;12563873;28;19920;-76
2022/09/30 07:57:17;;;;;;;;;;;;;;;;;;12543598;28;19920;-76
2022/09/30 08:03:19;;;;;;;;;;;;;;;;;;12507524;28;20373;-76
2022/09/30 08:09:20;;;;;;;;;;;;;;;;;;12529845;28;19935;-77
2022/09/30 08:15:22;;;;;;;;;;;;;;;;;;12554252;28;19908;-77
2022/09/30 08:21:24;;;;;;;;;;;;;;;;;;12548052;28;19932;-77
2022/09/30 08:27:25;;;;;;;;;;;;;;;;;;12538430;28;20114;-75
2022/09/30 08:33:27;;;;;;;;;;;;;;;;;;12549969;28;19915;-77
2022/09/30 08:39:28;;;;;;;;;;;;;;;;;;12532570;28;19943;-77
2022/09/30 08:45:30;;;;;;;;;;;;;;;;;;12564754;28;19923;-77
2022/09/30 08:51:32;;;;;;;;;;;;;;;;;;12576078;28;19920;-77
2022/09/30 08:57:33;;;;;;;;;;;;;;;;;;12587441;28;19978;-78
2022/09/30 09:03:35;;;;;;;;;;;;;;;;;;12572099;28;19908;-77
2022/09/30 09:09:37;;;;;;;;;;;;;;;;;;12587874;28;19924;-77
2022/09/30 09:15:39;;;;;;;;;;;;;;;;;;12619050;28;19913;-78
2022/09/30 09:21:40;;;;;;;;;;;;;;;;;;12607397;28;19931;-77
2022/09/30 09:27:42;;;;;;;;;;;;;;;;;;12592541;28;19968;-77
2022/09/30 09:33:44;;;;;;;;;;;;;;;;;;12635949;28;19916;-76
2022/09/30 09:39:45;;;;;;;;;;;;;;;;;;12607590;28;19915;-77
2022/09/30 09:45:47;;;;;;;;;;;;;;;;;;12617360;28;19916;-77
2022/09/30 09:51:49;;;;;;;;;;;;;;;;;;12615046;28;19924;-77
2022/09/30 09:57:50;;;;;;;;;;;;;;;;;;12609397;28;19946;-76
2022/09/30 10:03:52;;;;;;;;;;;;;;;;;;12591779;28;20280;-78
2022/09/30 10:09:54;;;;;;;;;;;;;;;;;;12582073;28;20246;-77
2022/09/30 10:15:55;;;;;;;;;;;;;;;;;;12592771;28;19911;-77
2022/09/30 10:21:57;;;;;;;;;;;;;;;;;;12583696;28;20238;-77
2022/09/30 10:27:58;;;;;;;;;;;;;;;;;;12614893;28;19942;-78
2022/09/30 10:34:00;;;;;;;;;;;;;;;;;;12601123;28;21585;-78
2022/09/30 10:40:02;;;;;;;;;;;;;;;;;;12583956;28;19967;-78
2022/09/30 10:46:03;;;;;;;;;;;;;;;;;;12620501;28;19915;-78
2022/09/30 10:52:05;;;;;;;;;;;;;;;;;;12596942;28;19919;-78
2022/09/30 10:58:07;;;;;;;;;;;;;;;;;;12580847;28;19935;-78
2022/09/30 11:04:08;;;;;;;;;;;;;;;;;;12568465;28;20372;-77
2022/09/30 11:10:10;;;;;;;;;;;;;;;;;;12559137;28;19921;-79
2022/09/30 11:16:13;;;;;;;;;;;;;;;;;;12574233;28;20348;-79
2022/09/30 11:22:15;;;;;;;;;;;;;;;;;;12557064;28;19912;-79
2022/09/30 11:28:17;;;;;;;;;;;;;;;;;;12569103;28;20305;-78
2022/09/30 11:34:19;;;;;;;;;;;;;;;;;;12581315;28;19908;-79
2022/09/30 11:40:20;;;;;;;;;;;;;;;;;;12562771;28;19913;-79
2022/09/30 11:46:22;;;;;;;;;;;;;;;;;;12587494;28;20306;-79
2022/09/30 11:52:23;;;;;;;;;;;;;;;;;;12588875;28;20197;-78
2022/09/30 11:58:25;;;;;;;;;;;;;;;;;;12573218;28;20250;-79
2022/09/30 12:04:28;;;;;;;;;;;;;;;;;;12572742;28;20412;-78
2022/09/30 12:10:29;;;;;;;;;;;;;;;;;;12588754;28;20342;-83
2022/09/30 12:16:31;;;;;;;;;;;;;;;;;;12578325;28;19939;-80
2022/09/30 12:22:33;;;;;;;;;;;;;;;;;;12588068;28;20262;-79
2022/09/30 12:34:55;;;;;;;;;;;;;;;;;;12591682;28;19916;-78
2022/09/30 12:40:57;;;;;;;;;;;;;;;;;;12589445;28;19908;-78
2022/09/30 12:46:58;;;;;;;;;;;;;;;;;;12589544;28;19995;-78
2022/09/30 12:53:00;;;;;;;;;;;;;;;;;;12588699;28;19924;-78
2022/09/30 12:59:02;;;;;;;;;;;;;;;;;;12587557;28;20002;-78
2022/09/30 13:05:04;;;;;;;;;;;;;;;;;;12591197;28;19920;-77
2022/09/30 13:11:06;;;;;;;;;;;;;;;;;;12571889;28;19927;-77
2022/09/30 13:17:09;;;;;;;;;;;;;;;;;;12590057;28;19908;-77
2022/09/30 13:23:10;;;;;;;;;;;;;;;;;;12587992;28;20269;-77
2022/09/30 13:29:12;;;;;;;;;;;;;;;;;;12589138;28;20296;-78
2022/09/30 13:35:13;;;;;;;;;;;;;;;;;;12588841;28;19956;-76
2022/09/30 13:41:15;;;;;;;;;;;;;;;;;;12585530;28;19916;-76
2022/09/30 13:47:16;;;;;;;;;;;;;;;;;;12586527;28;19908;-77
2022/09/30 13:53:18;;;;;;;;;;;;;;;;;;12586379;28;19964;-77
2022/09/30 13:59:19;;;;;;;;;;;;;;;;;;12587665;28;19916;-76
2022/09/30 14:05:21;;;;;;;;;;;;;;;;;;12587209;28;20329;-77
2022/09/30 14:11:23;;;;;;;;;;;;;;;;;;12585444;28;20380;-77
2022/09/30 14:17:24;;;;;;;;;;;;;;;;;;12586826;28;19915;-76
2022/09/30 14:23:26;;;;;;;;;;;;;;;;;;12585824;28;20071;-77
2022/09/30 14:29:27;;;;;;;;;;;;;;;;;;12585839;28;19917;-78
2022/09/30 14:35:30;;;;;;;;;;;;;;;;;;12585977;28;19912;-78
2022/09/30 14:41:33;;;;;;;;;;;;;;;;;;12585991;28;19957;-78
2022/09/30 14:47:36;;;;;;;;;;;;;;;;;;12585726;28;19908;-78
2022/09/30 14:53:37;;;;;;;;;;;;;;;;;;12567298;28;19938;-78
2022/09/30 14:59:39;;;;;;;;;;;;;;;;;;12566288;28;19927;-77
2022/09/30 15:05:40;;;;;;;;;;;;;;;;;;12584305;28;19912;-77
2022/09/30 15:11:42;;;;;;;;;;;;;;;;;;12583918;28;19956;-77
2022/09/30 15:17:43;;;;;;;;;;;;;;;;;;12583085;28;19908;-77
2022/09/30 15:23:45;;;;;;;;;;;;;;;;;;12583475;28;19912;-77
2022/09/30 15:29:47;;;;;;;;;;;;;;;;;;12566385;28;19924;-77
2022/09/30 15:35:48;;;;;;;;;;;;;;;;;;12584457;28;19920;-78
2022/09/30 15:41:50;;;;;;;;;;;;;;;;;;12583187;28;20337;-76
2022/09/30 15:47:52;;;;;;;;;;;;;;;;;;12581746;28;20324;-77
2022/09/30 15:53:56;;;;;;;;;;;;;;;;;;12565485;28;19912;-77
2022/09/30 15:59:58;;;;;;;;;;;;;;;;;;12581673;28;19927;-77
2022/09/30 16:06:00;;;;;;;;;;;;;;;;;;12581564;28;19912;-77
2022/09/30 16:12:02;;;;;;;;;;;;;;;;;;12580963;28;19933;-78
2022/09/30 16:18:04;;;;;;;;;;;;;;;;;;12581414;28;20333;-77
2022/09/30 16:24:05;;;;;;;;;;;;;;;;;;12582762;28;19935;-77
2022/09/30 16:30:07;;;;;;;;;;;;;;;;;;12565947;28;19923;-77
2022/09/30 16:36:08;;;;;;;;;;;;;;;;;;12591261;28;19915;-77
2022/09/30 16:42:10;;;;;;;;;;;;;;;;;;12572567;28;20369;-77
2022/09/30 16:48:11;;;;;;;;;;;;;;;;;;12589633;28;20286;-76
2022/09/30 16:54:13;;;;;;;;;;;;;;;;;;12588595;28;19919;-77
2022/09/30 17:00:16;;;;;;;;;;;;;;;;;;12590829;28;19909;-77
2022/09/30 17:06:18;;;;;;;;;;;;;;;;;;12588950;28;19908;-77
2022/09/30 17:12:19;;;;;;;;;;;;;;;;;;12590360;28;19916;-77
2022/09/30 17:18:21;;;;;;;;;;;;;;;;;;12588040;28;19920;-78
2022/09/30 17:24:22;;;;;;;;;;;;;;;;;;12571176;28;19912;-77
2022/09/30 17:30:24;;;;;;;;;;;;;;;;;;12589316;28;19953;-77
2022/09/30 17:36:25;;;;;;;;;;;;;;;;;;12585848;28;20002;-77
2022/09/30 17:48:47;;;;;;;;;;;;;;;;;;12586466;28;19921;-78
2022/09/30 17:54:49;;;;;;;;;;;;;;;;;;12584738;28;19912;-77
2022/09/30 18:00:50;;;;;;;;;;;;;;;;;;12587216;28;20320;-77
2022/09/30 18:06:52;;;;;;;;;;;;;;;;;;12585903;28;20030;-77
2022/09/30 18:12:53;;;;;;;;;;;;;;;;;;12587363;28;19917;-77
2022/09/30 18:18:55;;;;;;;;;;;;;;;;;;12587234;28;20002;-77
2022/09/30 18:31:27;;;;;;;;;;;;;;;;;;12586058;28;19916;-77
2022/09/30 18:37:29;;;;;;;;;;;;;;;;;;12586539;28;19963;-76
2022/09/30 18:43:31;;;;;;;;;;;;;;;;;;12584768;28;20122;-77
2022/09/30 18:49:33;;;;;;;;;;;;;;;;;;12568057;28;19917;-78
2022/09/30 18:55:34;;;;;;;;;;;;;;;;;;12584408;28;20357;-78
2022/09/30 19:01:36;;;;;;;;;;;;;;;;;;12585524;28;19908;-78
2022/09/30 19:07:38;;;;;;;;;;;;;;;;;;12585051;28;19908;-77
2022/09/30 19:13:39;;;;;;;;;;;;;;;;;;12599751;28;19908;-77
2022/09/30 19:19:44;;;;;;;;;;;;;;;;;;12585776;28;20302;-78
2022/09/30 19:25:45;;;;;;;;;;;;;;;;;;12599393;28;19941;-76
2022/09/30 19:31:47;;;;;;;;;;;;;;;;;;12584211;28;19916;-77
2022/09/30 19:37:48;;;;;;;;;;;;;;;;;;12584649;28;19908;-77
2022/09/30 19:43:50;;;;;;;;;;;;;;;;;;12600005;28;20357;-77
2022/09/30 19:49:52;;;;;;;;;;;;;;;;;;12583355;28;19916;-78
2022/09/30 19:55:53;;;;;;;;;;;;;;;;;;12598927;28;19942;-78
2022/09/30 20:01:55;;;;;;;;;;;;;;;;;;12598674;28;19908;-76
2022/09/30 20:07:57;;;;;;;;;;;;;;;;;;12589611;28;19913;-77
2022/09/30 20:20:34;;;;;;;;;;;;;;;;;;12594161;28;19909;-77
2022/09/30 20:26:35;;;;;;;;;;;;;;;;;;12590786;28;20384;-77
2022/09/30 20:32:37;;;;;;;;;;;;;;;;;;12606450;28;19916;-77
2022/09/30 20:38:38;;;;;;;;;;;;;;;;;;12589645;28;19908;-77
2022/09/30 20:44:44;;;;;;;;;;;;;;;;;;12606750;28;19919;-77
2022/09/30 20:50:47;;;;;;;;;;;;;;;;;;12605817;28;19916;-78
2022/09/30 20:56:48;;;;;;;;;;;;;;;;;;12588580;28;19913;-78
2022/09/30 21:02:51;;;;;;;;;;;;;;;;;;12603621;28;20277;-77
2022/09/30 21:08:53;;;;;;;;;;;;;;;;;;12604013;28;19916;-78
2022/09/30 21:14:54;;;;;;;;;;;;;;;;;;12603910;28;19909;-77
2022/09/30 21:20:57;;;;;;;;;;;;;;;;;;12589037;28;19916;-77
2022/09/30 21:27:00;;;;;;;;;;;;;;;;;;12603816;28;19935;-77
2022/09/30 21:33:01;;;;;;;;;;;;;;;;;;12588043;28;19927;-77
2022/09/30 21:39:03;;;;;;;;;;;;;;;;;;12603400;28;19924;-77
2022/09/30 21:45:05;;;;;;;;;;;;;;;;;;12588392;28;19916;-76
2022/09/30 21:51:06;;;;;;;;;;;;;;;;;;12603148;28;19916;-76
2022/09/30 21:57:08;;;;;;;;;;;;;;;;;;12602773;28;19939;-76
2022/09/30 22:03:09;;;;;;;;;;;;;;;;;;12587323;28;19974;-77
2022/09/30 22:09:11;;;;;;;;;;;;;;;;;;12602996;28;20296;-77
2022/09/30 22:15:12;;;;;;;;;;;;;;;;;;12585217;28;19908;-76
2022/09/30 22:21:14;;;;;;;;;;;;;;;;;;12587415;28;19919;-77
2022/09/30 22:27:16;;;;;;;;;;;;;;;;;;12601370;28;19935;-76
2022/09/30 22:39:37;;;;;;;;;;;;;;;;;;12586923;28;19908;-76
2022/09/30 22:45:40;;;;;;;;;;;;;;;;;;12602167;28;19909;-77
2022/09/30 22:51:41;;;;;;;;;;;;;;;;;;12585267;28;19924;-77
2022/09/30 22:57:43;;;;;;;;;;;;;;;;;;12586104;28;19908;-78
2022/09/30 23:03:44;;;;;;;;;;;;;;;;;;12584622;28;20320;-77
2022/09/30 23:09:46;;;;;;;;;;;;;;;;;;12586055;28;19924;-77
2022/09/30 23:15:47;;;;;;;;;;;;;;;;;;12599646;28;19909;-77
2022/09/30 23:21:49;;;;;;;;;;;;;;;;;;12587408;28;19964;-78
2022/09/30 23:27:50;;;;;;;;;;;;;;;;;;12600805;28;20265;-77
2022/09/30 23:33:52;;;;;;;;;;;;;;;;;;12600414;28;20193;-77
2022/09/30 23:39:53;;;;;;;;;;;;;;;;;;12602302;28;19909;-76
2022/09/30 23:45:55;;;;;;;;;;;;;;;;;;12608024;28;19908;-77
2022/09/30 23:51:57;;;;;;;;;;;;;;;;;;12588497;28;19924;-77
2022/09/30 23:57:59;;;;;;;;;;;;;;;;;;12609894;28;20275;-76
